createdAt,value
2022-08-14T00:00:19.781Z,99.90
2022-08-14T00:01:42.291Z,99.90
2022-08-14T00:03:21.671Z,99.90
2022-08-14T00:04:51.809Z,99.90
2022-08-14T00:06:25.565Z,99.90
2022-08-14T00:07:51.491Z,99.90
2022-08-14T00:09:18.027Z,99.90
2022-08-14T00:10:51.363Z,99.90
2022-08-14T00:12:23.970Z,99.90
2022-08-14T00:13:52.783Z,99.90
2022-08-14T00:15:43.708Z,99.90
2022-08-14T00:17:06.943Z,99.90
2022-08-14T00:19:05.549Z,99.90
2022-08-14T00:20:12.554Z,99.90
2022-08-14T00:21:37.264Z,99.90
2022-08-14T00:23:12.595Z,99.90
2022-08-14T00:24:38.665Z,99.90
2022-08-14T00:26:05.907Z,99.90
2022-08-14T00:27:29.053Z,99.90
2022-08-14T00:28:57.602Z,99.90
2022-08-14T00:30:19.766Z,99.90
2022-08-14T00:31:44.338Z,99.90
2022-08-14T00:33:15.411Z,99.90
2022-08-14T00:34:47.208Z,99.90
2022-08-14T00:36:36.908Z,99.90
2022-08-14T00:37:52.943Z,99.90
2022-08-14T00:39:18.022Z,99.90
2022-08-14T00:40:41.001Z,99.90
2022-08-14T00:42:21.079Z,99.90
2022-08-14T00:43:45.775Z,99.90
2022-08-14T00:45:12.378Z,99.90
2022-08-14T00:46:38.502Z,99.90
2022-08-14T00:48:00.749Z,99.90
2022-08-14T00:49:22.930Z,99.90
2022-08-14T00:50:46.566Z,99.90
2022-08-14T00:52:09.550Z,99.90
2022-08-14T00:53:38.638Z,99.90
2022-08-14T00:55:01.377Z,99.90
2022-08-14T00:56:25.020Z,99.90
2022-08-14T00:58:12.670Z,99.90
2022-08-14T00:59:36.196Z,99.90
2022-08-14T01:01:12.763Z,99.90
2022-08-14T01:02:37.714Z,99.90
2022-08-14T01:04:03.170Z,99.90
2022-08-14T01:05:41.787Z,99.90
2022-08-14T01:07:12.149Z,99.90
2022-08-14T01:08:51.295Z,99.90
2022-08-14T01:10:20.713Z,99.90
2022-08-14T01:11:45.529Z,99.90
2022-08-14T01:13:34.444Z,99.90
2022-08-14T01:15:05.617Z,99.90
2022-08-14T01:16:31.870Z,99.90
2022-08-14T01:18:12.410Z,99.90
2022-08-14T01:19:53.922Z,99.90
2022-08-14T01:21:17.470Z,99.90
2022-08-14T01:22:39.779Z,99.90
2022-08-14T01:24:10.889Z,99.90
2022-08-14T01:25:33.184Z,99.90
2022-08-14T01:26:55.409Z,99.90
2022-08-14T01:28:34.462Z,99.90
2022-08-14T01:30:04.330Z,99.90
2022-08-14T01:31:30.551Z,99.90
2022-08-14T01:32:52.807Z,99.90
2022-08-14T01:35:17.567Z,99.90
2022-08-14T01:36:04.653Z,99.90
2022-08-14T01:37:28.836Z,99.90
2022-08-14T01:38:58.822Z,99.90
2022-08-14T01:40:25.390Z,99.90
2022-08-14T01:42:00.821Z,99.90
2022-08-14T01:43:26.478Z,99.90
2022-08-14T01:44:54.303Z,99.90
2022-08-14T01:46:24.566Z,99.90
2022-08-14T01:47:46.911Z,99.90
2022-08-14T01:49:15.376Z,99.90
2022-08-14T01:50:37.982Z,99.90
2022-08-14T01:52:00.057Z,99.90
2022-08-14T01:53:22.813Z,99.90
2022-08-14T01:54:45.404Z,99.90
2022-08-14T01:56:21.615Z,99.90
2022-08-14T01:58:00.717Z,99.90
2022-08-14T01:59:31.676Z,99.90
2022-08-14T02:01:00.585Z,99.90
2022-08-14T02:02:23.052Z,99.90
2022-08-14T02:03:53.331Z,99.90
2022-08-14T02:05:19.001Z,99.90
2022-08-14T02:06:41.157Z,99.90
2022-08-14T02:08:09.155Z,99.90
2022-08-14T02:09:38.301Z,99.90
2022-08-14T02:11:18.599Z,99.90
2022-08-14T02:12:40.988Z,99.90
2022-08-14T02:14:10.299Z,99.90
2022-08-14T02:15:36.859Z,99.90
2022-08-14T02:17:00.187Z,99.90
2022-08-14T02:18:22.396Z,99.90
2022-08-14T02:19:45.757Z,99.90
2022-08-14T02:21:12.435Z,99.90
2022-08-14T02:22:34.890Z,99.90
2022-08-14T02:24:06.851Z,99.90
2022-08-14T02:25:54.532Z,99.90
2022-08-14T02:28:26.099Z,99.90
2022-08-14T02:29:07.149Z,99.90
2022-08-14T02:30:31.389Z,99.90
2022-08-14T02:31:58.421Z,99.90
2022-08-14T02:33:21.221Z,99.90
2022-08-14T02:34:44.380Z,99.90
2022-08-14T02:37:04.947Z,99.90
2022-08-14T02:37:51.717Z,99.90
2022-08-14T02:39:15.523Z,99.90
2022-08-14T02:40:37.964Z,99.90
2022-08-14T02:42:00.466Z,99.90
2022-08-14T02:43:37.190Z,99.90
2022-08-14T02:45:09.045Z,99.90
2022-08-14T02:46:32.538Z,99.90
2022-08-14T02:47:57.594Z,99.90
2022-08-14T02:49:27.481Z,99.90
2022-08-14T02:50:56.147Z,99.90
2022-08-14T02:52:56.303Z,99.90
2022-08-14T02:54:01.723Z,99.90
2022-08-14T02:55:23.895Z,99.90
2022-08-14T02:57:15.273Z,99.90
2022-08-14T02:58:30.914Z,99.90
2022-08-14T02:59:54.055Z,99.90
2022-08-14T03:01:20.238Z,99.90
2022-08-14T03:02:49.517Z,99.90
2022-08-14T03:04:20.867Z,99.90
2022-08-14T03:05:43.240Z,99.90
2022-08-14T03:07:07.434Z,99.90
2022-08-14T03:08:32.109Z,99.90
2022-08-14T03:10:25.492Z,99.90
2022-08-14T03:11:36.948Z,99.90
2022-08-14T03:13:00.642Z,99.90
2022-08-14T03:14:27.659Z,99.90
2022-08-14T03:15:55.815Z,99.90
2022-08-14T03:17:20.011Z,99.90
2022-08-14T03:18:46.579Z,99.90
2022-08-14T03:20:14.598Z,99.90
2022-08-14T03:21:39.517Z,99.90
2022-08-14T03:23:04.502Z,99.90
2022-08-14T03:24:26.676Z,99.90
2022-08-14T03:25:49.183Z,99.90
2022-08-14T03:27:14.025Z,99.90
2022-08-14T03:28:36.790Z,99.90
2022-08-14T03:30:05.483Z,99.90
2022-08-14T03:31:28.295Z,99.90
2022-08-14T03:32:52.309Z,99.90
2022-08-14T03:34:24.574Z,99.90
2022-08-14T03:37:28.920Z,99.90
2022-08-14T03:39:12.860Z,99.90
2022-08-14T03:39:27.413Z,99.90
2022-08-14T03:40:50.431Z,99.90
2022-08-14T03:42:19.272Z,99.90
2022-08-14T03:43:43.227Z,99.90
2022-08-14T03:45:25.914Z,99.90
2022-08-14T03:46:52.150Z,99.90
2022-08-14T03:48:30.110Z,99.90
2022-08-14T03:49:53.365Z,99.90
2022-08-14T03:51:22.061Z,99.90
2022-08-14T03:52:48.035Z,99.90
2022-08-14T03:54:20.664Z,99.90
2022-08-14T03:55:44.119Z,99.90
2022-08-14T03:57:06.917Z,99.90
2022-08-14T03:58:35.082Z,99.90
2022-08-14T04:00:02.375Z,99.90
2022-08-14T04:01:29.217Z,99.90
2022-08-14T04:03:02.322Z,99.90
2022-08-14T04:04:24.381Z,99.90
2022-08-14T04:05:49.058Z,99.90
2022-08-14T04:07:11.477Z,99.90
2022-08-14T04:08:38.219Z,99.90
2022-08-14T04:10:01.309Z,99.90
2022-08-14T04:11:25.213Z,99.90
2022-08-14T04:12:51.739Z,99.90
2022-08-14T04:14:15.281Z,99.90
2022-08-14T04:15:55.689Z,99.90
2022-08-14T04:17:21.791Z,99.90
2022-08-14T04:18:46.403Z,99.90
2022-08-14T04:20:10.026Z,99.90
2022-08-14T04:21:39.692Z,99.90
2022-08-14T04:23:23.161Z,99.90
2022-08-14T04:24:46.071Z,99.90
2022-08-14T04:26:26.962Z,99.90
2022-08-14T04:28:02.211Z,99.90
2022-08-14T04:29:25.756Z,99.90
2022-08-14T04:30:48.894Z,99.90
2022-08-14T04:33:10.488Z,99.90
2022-08-14T04:33:53.961Z,99.90
2022-08-14T04:35:17.844Z,99.90
2022-08-14T04:37:04.145Z,99.90
2022-08-14T04:38:48.413Z,99.90
2022-08-14T04:40:30.180Z,99.90
2022-08-14T04:42:13.993Z,99.90
2022-08-14T04:43:38.749Z,99.90
2022-08-14T04:45:01.660Z,99.90
2022-08-14T04:46:54.722Z,99.90
2022-08-14T04:48:36.748Z,99.90
2022-08-14T04:49:58.560Z,99.90
2022-08-14T04:51:25.874Z,99.90
2022-08-14T04:52:49.314Z,99.90
2022-08-14T04:54:16.599Z,99.90
2022-08-14T04:55:41.443Z,99.90
2022-08-14T04:57:04.528Z,99.90
2022-08-14T04:58:32.561Z,99.70
2022-08-14T04:59:56.255Z,99.30
2022-08-14T05:01:19.735Z,99.20
2022-08-14T05:02:41.988Z,98.90
2022-08-14T05:04:04.672Z,98.50
2022-08-14T05:05:32.299Z,98.20
2022-08-14T05:06:55.515Z,98.20
2022-08-14T05:08:50.402Z,98.40
2022-08-14T05:10:00.668Z,98.20
2022-08-14T05:11:36.685Z,98.10
2022-08-14T05:13:13.089Z,98.20
2022-08-14T05:14:46.135Z,98.00
2022-08-14T05:16:15.818Z,97.70
2022-08-14T05:17:54.025Z,97.60
2022-08-14T05:19:29.120Z,97.80
2022-08-14T05:21:54.684Z,97.80
2022-08-14T05:22:38.335Z,97.80
2022-08-14T05:24:00.379Z,97.90
2022-08-14T05:25:22.444Z,98.10
2022-08-14T05:26:47.168Z,98.30
2022-08-14T05:28:14.133Z,98.60
2022-08-14T05:29:38.667Z,98.70
2022-08-14T05:31:03.035Z,98.60
2022-08-14T05:32:27.299Z,98.60
2022-08-14T05:33:56.395Z,98.40
2022-08-14T05:35:19.385Z,98.50
2022-08-14T05:36:43.919Z,98.50
2022-08-14T05:38:30.563Z,98.50
2022-08-14T05:39:54.329Z,98.10
2022-08-14T05:41:18.764Z,98.20
2022-08-14T05:42:40.853Z,98.00
2022-08-14T05:44:08.699Z,97.80
2022-08-14T05:45:30.927Z,97.90
2022-08-14T05:46:53.465Z,97.40
2022-08-14T05:48:32.979Z,97.40
2022-08-14T05:49:58.305Z,97.50
2022-08-14T05:51:22.038Z,97.50
2022-08-14T05:52:44.377Z,97.20
2022-08-14T05:54:11.348Z,97.80
2022-08-14T05:55:36.879Z,97.60
2022-08-14T05:57:06.570Z,97.70
2022-08-14T05:58:33.781Z,97.80
2022-08-14T06:00:04.463Z,97.60
2022-08-14T06:01:26.609Z,97.50
2022-08-14T06:02:56.137Z,97.40
2022-08-14T06:04:19.527Z,97.40
2022-08-14T06:05:43.356Z,97.50
2022-08-14T06:07:05.831Z,97.70
2022-08-14T06:08:36.042Z,98.00
2022-08-14T06:10:07.665Z,98.30
2022-08-14T06:11:30.828Z,98.70
2022-08-14T06:12:56.328Z,98.70
2022-08-14T06:14:21.269Z,98.70
2022-08-14T06:15:47.684Z,99.10
2022-08-14T06:17:10.143Z,99.40
2022-08-14T06:18:37.991Z,99.30
2022-08-14T06:20:00.767Z,99.60
2022-08-14T06:21:23.527Z,99.90
2022-08-14T06:22:46.580Z,99.90
2022-08-14T06:24:18.361Z,99.90
2022-08-14T06:25:41.325Z,99.90
2022-08-14T06:27:06.341Z,99.90
2022-08-14T06:28:32.115Z,99.90
2022-08-14T06:29:54.641Z,99.90
2022-08-14T06:31:17.453Z,99.90
2022-08-14T06:32:42.108Z,99.90
2022-08-14T06:35:09.354Z,99.90
2022-08-14T06:35:49.812Z,99.90
2022-08-14T06:37:12.103Z,99.90
2022-08-14T06:38:34.221Z,99.90
2022-08-14T06:39:57.001Z,99.90
2022-08-14T06:41:20.960Z,99.90
2022-08-14T06:43:10.311Z,99.90
2022-08-14T06:44:33.315Z,99.90
2022-08-14T06:45:57.161Z,99.90
2022-08-14T06:47:19.600Z,99.90
2022-08-14T06:48:48.565Z,99.90
2022-08-14T06:50:15.669Z,99.90
2022-08-14T06:51:38.779Z,99.90
2022-08-14T06:53:07.353Z,99.90
2022-08-14T06:54:31.666Z,99.90
2022-08-14T06:56:00.796Z,99.90
2022-08-14T06:57:24.725Z,99.90
2022-08-14T06:58:46.872Z,99.90
2022-08-14T07:00:26.574Z,99.90
2022-08-14T07:02:13.295Z,99.90
2022-08-14T07:03:58.419Z,99.90
2022-08-14T07:05:39.967Z,99.90
2022-08-14T07:07:18.365Z,99.90
2022-08-14T07:08:40.586Z,99.90
2022-08-14T07:10:05.288Z,99.90
2022-08-14T07:11:27.801Z,99.90
2022-08-14T07:12:56.478Z,99.90
2022-08-14T07:14:25.659Z,99.90
2022-08-14T07:15:55.181Z,99.90
2022-08-14T07:17:17.499Z,99.90
2022-08-14T07:18:41.544Z,99.90
2022-08-14T07:20:07.306Z,99.90
2022-08-14T07:21:29.636Z,99.90
2022-08-14T07:22:57.239Z,99.90
2022-08-14T07:24:26.498Z,99.90
2022-08-14T07:25:58.280Z,99.90
2022-08-14T07:27:20.544Z,99.90
2022-08-14T07:28:44.139Z,99.90
2022-08-14T07:30:06.777Z,99.90
2022-08-14T07:31:31.288Z,99.90
2022-08-14T07:32:53.342Z,99.90
2022-08-14T07:34:36.616Z,99.90
2022-08-14T07:36:03.370Z,99.90
2022-08-14T07:37:48.186Z,99.90
2022-08-14T07:39:15.057Z,99.90
2022-08-14T07:40:37.182Z,99.90
2022-08-14T07:42:00.494Z,99.90
2022-08-14T07:43:24.433Z,99.90
2022-08-14T07:44:50.334Z,99.90
2022-08-14T07:46:14.738Z,99.90
2022-08-14T07:47:43.598Z,99.90
2022-08-14T07:49:06.595Z,99.90
2022-08-14T07:50:34.722Z,99.90
2022-08-14T07:52:00.082Z,99.90
2022-08-14T07:53:22.758Z,99.90
2022-08-14T07:54:45.467Z,99.90
2022-08-14T07:56:36.756Z,99.90
2022-08-14T07:57:52.870Z,99.90
2022-08-14T07:59:41.012Z,99.90
2022-08-14T08:01:06.015Z,99.90
2022-08-14T08:02:32.638Z,99.90
2022-08-14T08:03:59.642Z,99.90
2022-08-14T08:05:25.319Z,99.90
2022-08-14T08:06:47.755Z,99.90
2022-08-14T08:08:26.877Z,99.90
2022-08-14T08:09:54.418Z,99.90
2022-08-14T08:11:19.348Z,99.90
2022-08-14T08:12:43.506Z,99.90
2022-08-14T08:14:10.707Z,99.90
2022-08-14T08:15:48.490Z,99.90
2022-08-14T08:17:11.457Z,99.90
2022-08-14T08:18:33.742Z,99.90
2022-08-14T08:19:58.280Z,99.90
2022-08-14T08:21:22.334Z,99.90
2022-08-14T08:22:55.648Z,99.90
2022-08-14T08:24:20.136Z,99.90
2022-08-14T08:25:45.861Z,99.90
2022-08-14T08:27:19.901Z,99.90
2022-08-14T08:28:44.099Z,99.90
2022-08-14T08:30:11.451Z,99.90
2022-08-14T08:31:35.344Z,99.90
2022-08-14T08:33:01.250Z,99.90
2022-08-14T08:34:25.299Z,99.90
2022-08-14T08:35:50.741Z,99.90
2022-08-14T08:37:14.083Z,99.90
2022-08-14T08:39:18.620Z,99.90
2022-08-14T08:40:35.700Z,99.90
2022-08-14T08:42:04.715Z,99.90
2022-08-14T08:43:30.761Z,99.90
2022-08-14T08:44:56.186Z,99.90
2022-08-14T08:46:21.461Z,99.90
2022-08-14T08:47:47.255Z,99.90
2022-08-14T08:49:10.555Z,99.90
2022-08-14T08:52:04.875Z,99.90
2022-08-14T08:53:32.492Z,99.90
2022-08-14T08:54:54.809Z,99.90
2022-08-14T08:56:30.806Z,99.90
2022-08-14T08:58:02.738Z,99.90
2022-08-14T08:59:31.098Z,99.90
2022-08-14T09:00:58.634Z,99.90
2022-08-14T09:02:20.976Z,99.90
2022-08-14T09:03:44.152Z,99.90
2022-08-14T09:05:06.991Z,99.90
2022-08-14T09:07:00.447Z,99.90
2022-08-14T09:08:30.578Z,99.90
2022-08-14T09:09:59.874Z,99.90
2022-08-14T09:11:24.285Z,99.90
2022-08-14T09:12:51.657Z,99.90
2022-08-14T09:14:13.911Z,99.90
2022-08-14T09:15:42.654Z,99.90
2022-08-14T09:17:05.112Z,99.90
2022-08-14T09:18:27.556Z,99.90
2022-08-14T09:19:49.791Z,99.90
2022-08-14T09:21:13.892Z,99.90
2022-08-14T09:22:42.414Z,99.90
2022-08-14T09:24:28.156Z,99.90
2022-08-14T09:26:00.185Z,99.90
2022-08-14T09:27:23.666Z,99.90
2022-08-14T09:28:46.071Z,99.90
2022-08-14T09:30:30.605Z,99.90
2022-08-14T09:31:58.113Z,99.90
2022-08-14T09:33:55.898Z,99.90
2022-08-14T09:35:30.233Z,99.90
2022-08-14T09:37:12.355Z,99.90
2022-08-14T09:38:57.131Z,99.90
2022-08-14T09:40:34.179Z,99.90
2022-08-14T09:42:21.275Z,99.90
2022-08-14T09:44:29.967Z,99.90
2022-08-14T09:45:58.265Z,99.90
2022-08-14T09:47:46.607Z,99.90
2022-08-14T09:49:11.987Z,99.90
2022-08-14T09:50:52.499Z,99.90
2022-08-14T09:52:23.809Z,99.90
2022-08-14T09:54:19.134Z,99.90
2022-08-14T09:55:45.418Z,99.90
2022-08-14T09:57:10.309Z,99.90
2022-08-14T09:58:41.479Z,99.90
2022-08-14T10:00:29.266Z,99.90
2022-08-14T10:01:53.484Z,99.90
2022-08-14T10:03:34.012Z,99.90
2022-08-14T10:05:08.802Z,99.90
2022-08-14T10:06:31.017Z,99.90
2022-08-14T10:07:58.850Z,99.90
2022-08-14T10:09:21.583Z,99.90
2022-08-14T10:10:43.877Z,99.90
2022-08-14T10:12:29.136Z,99.90
2022-08-14T10:13:57.615Z,99.90
2022-08-14T10:15:22.151Z,99.90
2022-08-14T10:16:52.869Z,99.90
2022-08-14T10:18:18.627Z,99.90
2022-08-14T10:19:48.743Z,99.90
2022-08-14T10:21:18.099Z,99.90
2022-08-14T10:23:12.403Z,99.90
2022-08-14T10:24:36.494Z,99.90
2022-08-14T10:26:06.218Z,99.90
2022-08-14T10:27:29.090Z,99.90
2022-08-14T10:29:17.800Z,99.90
2022-08-14T10:30:36.721Z,99.90
2022-08-14T10:31:59.859Z,99.90
2022-08-14T10:33:31.026Z,99.90
2022-08-14T10:35:09.303Z,99.90
2022-08-14T10:36:47.890Z,99.90
2022-08-14T10:38:12.122Z,99.90
2022-08-14T10:39:38.641Z,99.90
2022-08-14T10:41:18.244Z,99.90
2022-08-14T10:42:43.690Z,99.90
2022-08-14T10:44:22.189Z,99.90
2022-08-14T10:46:21.627Z,99.90
2022-08-14T10:48:07.783Z,99.90
2022-08-14T10:49:29.099Z,99.90
2022-08-14T10:50:55.107Z,99.90
2022-08-14T10:52:26.587Z,99.90
2022-08-14T10:53:56.949Z,99.90
2022-08-14T10:55:22.059Z,99.90
2022-08-14T10:56:44.648Z,99.90
2022-08-14T10:58:10.589Z,99.90
2022-08-14T10:59:43.410Z,99.90
2022-08-14T11:01:07.914Z,99.90
2022-08-14T11:02:54.627Z,99.90
2022-08-14T11:04:25.928Z,99.90
2022-08-14T11:05:55.637Z,99.90
2022-08-14T11:07:21.349Z,99.90
2022-08-14T11:08:45.563Z,99.90
2022-08-14T11:10:10.404Z,99.90
2022-08-14T11:11:43.184Z,99.90
2022-08-14T11:13:06.628Z,99.90
2022-08-14T11:14:28.931Z,99.90
2022-08-14T11:15:52.642Z,99.90
2022-08-14T11:17:15.564Z,99.90
2022-08-14T11:18:51.309Z,99.90
2022-08-14T11:20:21.423Z,99.90
2022-08-14T11:21:49.497Z,99.90
2022-08-14T11:23:21.783Z,99.90
2022-08-14T11:24:50.712Z,99.90
2022-08-14T11:26:24.042Z,99.90
2022-08-14T11:27:49.074Z,99.90
2022-08-14T11:29:12.148Z,99.90
2022-08-14T11:30:50.403Z,99.90
2022-08-14T11:32:14.664Z,99.90
2022-08-14T11:33:39.436Z,99.90
2022-08-14T11:35:05.830Z,99.90
2022-08-14T11:36:35.093Z,99.90
2022-08-14T11:38:01.587Z,99.90
2022-08-14T11:39:34.252Z,99.90
2022-08-14T11:41:00.415Z,99.90
2022-08-14T11:42:58.630Z,99.90
2022-08-14T11:44:17.544Z,99.90
2022-08-14T11:45:52.130Z,99.90
2022-08-14T11:47:19.649Z,99.90
2022-08-14T11:49:03.152Z,99.90
2022-08-14T11:50:37.512Z,99.90
2022-08-14T11:52:00.355Z,99.90
2022-08-14T11:53:31.362Z,99.90
2022-08-14T11:54:58.489Z,99.90
2022-08-14T11:56:25.595Z,99.90
2022-08-14T11:58:01.950Z,99.90
2022-08-14T11:59:26.358Z,99.90
2022-08-14T12:01:00.020Z,99.90
2022-08-14T12:02:38.838Z,99.90
2022-08-14T12:04:31.999Z,99.90
2022-08-14T12:06:05.564Z,99.90
2022-08-14T12:07:28.358Z,99.90
2022-08-14T12:08:53.761Z,99.90
2022-08-14T12:10:26.091Z,99.90
2022-08-14T12:12:01.104Z,99.90
2022-08-14T12:13:23.386Z,99.90
2022-08-14T12:14:59.882Z,99.90
2022-08-14T12:16:22.775Z,99.90
2022-08-14T12:17:49.753Z,99.90
2022-08-14T12:19:12.707Z,99.90
2022-08-14T12:20:45.821Z,99.90
2022-08-14T12:22:17.690Z,99.90
2022-08-14T12:24:10.074Z,99.90
2022-08-14T12:26:31.507Z,99.90
2022-08-14T12:27:53.962Z,99.90
2022-08-14T12:29:16.903Z,99.90
2022-08-14T12:30:43.741Z,99.90
2022-08-14T12:32:12.564Z,99.90
2022-08-14T12:33:34.969Z,99.90
2022-08-14T12:34:58.658Z,99.90
2022-08-14T12:36:21.584Z,99.90
2022-08-14T12:37:53.172Z,99.90
2022-08-14T12:39:23.744Z,99.90
2022-08-14T12:40:51.834Z,99.90
2022-08-14T12:42:27.455Z,99.90
2022-08-14T12:44:01.926Z,99.90
2022-08-14T12:45:36.653Z,99.90
2022-08-14T12:47:17.825Z,99.90
2022-08-14T12:48:46.333Z,99.90
2022-08-14T12:50:13.191Z,99.90
2022-08-14T12:51:38.473Z,99.90
2022-08-14T12:53:14.380Z,99.90
2022-08-14T12:54:57.540Z,99.90
2022-08-14T12:56:33.210Z,99.90
2022-08-14T12:58:00.959Z,99.90
2022-08-14T12:59:37.196Z,99.90
2022-08-14T13:01:17.283Z,99.90
2022-08-14T13:02:43.297Z,99.90
2022-08-14T13:04:14.054Z,99.90
2022-08-14T13:05:37.468Z,99.90
2022-08-14T13:07:08.403Z,99.90
2022-08-14T13:08:33.487Z,99.90
2022-08-14T13:09:58.394Z,99.90
2022-08-14T13:11:24.300Z,99.90
2022-08-14T13:13:12.089Z,99.90
2022-08-14T13:14:33.602Z,99.90
2022-08-14T13:15:56.291Z,99.90
2022-08-14T13:17:21.912Z,99.90
2022-08-14T13:18:46.882Z,99.90
2022-08-14T13:20:24.328Z,99.90
2022-08-14T13:22:05.282Z,99.90
2022-08-14T13:23:36.435Z,99.90
2022-08-14T13:24:59.971Z,99.90
2022-08-14T13:26:28.122Z,99.90
2022-08-14T13:27:57.745Z,99.90
2022-08-14T13:29:22.735Z,99.90
2022-08-14T13:30:45.985Z,99.90
2022-08-14T13:32:10.041Z,99.90
2022-08-14T13:33:35.505Z,99.90
2022-08-14T13:34:59.521Z,99.90
2022-08-14T13:36:51.445Z,99.90
2022-08-14T13:38:10.378Z,99.90
2022-08-14T13:39:36.285Z,99.90
2022-08-14T13:40:59.109Z,99.90
2022-08-14T13:42:27.571Z,99.90
2022-08-14T13:44:00.068Z,99.90
2022-08-14T13:45:24.543Z,99.90
2022-08-14T13:46:58.207Z,99.90
2022-08-14T13:48:32.511Z,99.90
2022-08-14T13:50:02.776Z,99.90
2022-08-14T13:51:29.911Z,99.90
2022-08-14T13:52:55.233Z,99.90
2022-08-14T13:54:21.102Z,99.90
2022-08-14T13:55:46.166Z,99.90
2022-08-14T13:57:17.796Z,99.90
2022-08-14T13:58:47.797Z,99.90
2022-08-14T14:00:13.032Z,99.90
2022-08-14T14:01:43.269Z,99.90
2022-08-14T14:03:08.617Z,99.90
2022-08-14T14:04:31.649Z,99.90
2022-08-14T14:05:55.977Z,99.90
2022-08-14T14:07:21.694Z,99.90
2022-08-14T14:08:49.949Z,99.90
2022-08-14T14:10:13.475Z,99.90
2022-08-14T14:11:36.466Z,99.90
2022-08-14T14:12:59.130Z,99.90
2022-08-14T14:14:29.469Z,99.90
2022-08-14T14:16:11.318Z,99.90
2022-08-14T14:17:39.080Z,99.90
2022-08-14T14:19:08.905Z,99.90
2022-08-14T14:20:34.906Z,99.90
2022-08-14T14:22:00.189Z,99.90
2022-08-14T14:23:23.457Z,99.90
2022-08-14T14:24:46.514Z,99.90
2022-08-14T14:26:14.024Z,99.90
2022-08-14T14:27:40.813Z,99.90
2022-08-14T14:29:06.269Z,99.90
2022-08-14T14:30:46.128Z,99.90
2022-08-14T14:32:21.322Z,99.90
2022-08-14T14:33:48.750Z,99.90
2022-08-14T14:35:14.415Z,99.90
2022-08-14T14:36:43.579Z,99.90
2022-08-14T14:38:07.194Z,99.90
2022-08-14T14:39:29.791Z,99.90
2022-08-14T14:41:00.855Z,99.90
2022-08-14T14:42:31.717Z,99.90
2022-08-14T14:43:54.795Z,99.90
2022-08-14T14:45:19.594Z,99.90
2022-08-14T14:46:49.444Z,99.90
2022-08-14T14:48:12.656Z,99.90
2022-08-14T14:49:51.261Z,99.90
2022-08-14T14:51:19.285Z,99.90
2022-08-14T14:52:43.158Z,99.90
2022-08-14T14:54:06.799Z,99.90
2022-08-14T14:55:29.338Z,99.90
2022-08-14T14:57:13.995Z,99.90
2022-08-14T14:58:41.555Z,99.90
2022-08-14T15:00:12.625Z,99.90
2022-08-14T15:01:36.378Z,99.90
2022-08-14T15:02:59.483Z,99.90
2022-08-14T15:04:22.497Z,99.90
2022-08-14T15:05:45.294Z,99.90
2022-08-14T15:07:07.503Z,99.90
2022-08-14T15:08:56.716Z,99.90
2022-08-14T15:10:27.739Z,99.90
2022-08-14T15:11:53.770Z,99.90
2022-08-14T15:13:16.726Z,99.90
2022-08-14T15:14:54.948Z,99.90
2022-08-14T15:16:19.773Z,99.90
2022-08-14T15:17:42.443Z,99.90
2022-08-14T15:19:05.315Z,99.90
2022-08-14T15:20:30.503Z,99.90
2022-08-14T15:21:54.042Z,99.90
2022-08-14T15:23:16.180Z,99.90
2022-08-14T15:24:38.908Z,99.90
2022-08-14T15:26:02.541Z,99.90
2022-08-14T15:27:31.488Z,99.90
2022-08-14T15:29:03.163Z,99.90
2022-08-14T15:30:32.440Z,99.90
2022-08-14T15:31:54.966Z,99.90
2022-08-14T15:34:33.909Z,99.90
2022-08-14T15:35:25.647Z,99.90
2022-08-14T15:36:50.942Z,99.90
2022-08-14T15:38:17.545Z,99.90
2022-08-14T15:39:41.510Z,99.90
2022-08-14T15:41:08.634Z,99.90
2022-08-14T15:42:32.464Z,99.90
2022-08-14T15:43:57.850Z,99.90
2022-08-14T15:45:21.585Z,99.90
2022-08-14T15:46:45.620Z,99.90
2022-08-14T15:48:08.956Z,99.90
2022-08-14T15:49:40.551Z,99.90
2022-08-14T15:51:03.536Z,99.90
2022-08-14T15:52:33.734Z,99.90
2022-08-14T15:54:00.298Z,99.90
2022-08-14T15:55:25.024Z,99.90
2022-08-14T15:56:59.228Z,99.90
2022-08-14T15:58:23.087Z,99.90
2022-08-14T16:00:04.718Z,99.90
2022-08-14T16:01:53.544Z,99.90
2022-08-14T16:03:16.865Z,99.90
2022-08-14T16:04:39.430Z,99.90
2022-08-14T16:06:04.803Z,99.90
2022-08-14T16:07:28.002Z,99.90
2022-08-14T16:08:58.705Z,99.90
2022-08-14T16:10:30.068Z,99.90
2022-08-14T16:11:53.766Z,99.90
2022-08-14T16:13:17.346Z,99.90
2022-08-14T16:15:00.394Z,99.90
2022-08-14T16:16:49.813Z,99.90
2022-08-14T16:18:19.096Z,99.90
2022-08-14T16:19:44.214Z,99.90
2022-08-14T16:21:09.885Z,99.90
2022-08-14T16:22:59.023Z,99.90
2022-08-14T16:24:27.948Z,99.90
2022-08-14T16:25:52.605Z,99.90
2022-08-14T16:27:14.805Z,99.90
2022-08-14T16:28:42.942Z,99.90
2022-08-14T16:30:10.821Z,99.90
2022-08-14T16:31:36.599Z,99.90
2022-08-14T16:32:59.936Z,99.90
2022-08-14T16:34:45.986Z,99.90
2022-08-14T16:36:30.060Z,99.90
2022-08-14T16:37:49.755Z,99.90
2022-08-14T16:39:12.498Z,99.90
2022-08-14T16:40:42.855Z,99.90
2022-08-14T16:42:38.360Z,99.90
2022-08-14T16:43:50.030Z,99.90
2022-08-14T16:45:12.475Z,99.90
2022-08-14T16:46:43.559Z,99.90
2022-08-14T16:48:57.057Z,99.90
2022-08-14T16:50:05.219Z,99.90
2022-08-14T16:51:34.963Z,99.90
2022-08-14T16:53:00.871Z,99.90
2022-08-14T16:54:35.401Z,99.90
2022-08-14T16:56:22.942Z,99.90
2022-08-14T16:57:58.646Z,99.90
2022-08-14T16:59:30.747Z,99.90
2022-08-14T17:01:24.690Z,99.90
2022-08-14T17:02:47.722Z,99.90
2022-08-14T17:04:24.754Z,99.90
2022-08-14T17:05:48.308Z,99.90
2022-08-14T17:07:12.588Z,99.90
2022-08-14T17:08:46.048Z,99.90
2022-08-14T17:10:12.462Z,99.90
2022-08-14T17:11:48.945Z,99.90
2022-08-14T17:13:47.319Z,99.90
2022-08-14T17:15:11.188Z,99.90
2022-08-14T17:16:38.109Z,99.90
2022-08-14T17:18:00.305Z,99.90
2022-08-14T17:19:22.394Z,99.90
2022-08-14T17:21:00.474Z,99.90
2022-08-14T17:22:44.921Z,99.90
2022-08-14T17:24:56.879Z,99.90
2022-08-14T17:25:52.808Z,99.90
2022-08-14T17:27:22.684Z,99.90
2022-08-14T17:28:52.657Z,99.90
2022-08-14T17:30:32.252Z,99.90
2022-08-14T17:32:28.132Z,99.90
2022-08-14T17:33:53.110Z,99.90
2022-08-14T17:36:58.083Z,99.90
2022-08-14T17:38:38.436Z,99.90
2022-08-14T17:40:15.457Z,99.90
2022-08-14T17:42:01.682Z,99.90
2022-08-14T17:43:41.939Z,99.90
2022-08-14T17:45:04.512Z,99.90
2022-08-14T17:46:50.211Z,99.90
2022-08-14T17:49:13.970Z,99.90
2022-08-14T17:50:58.397Z,99.90
2022-08-14T17:52:34.280Z,99.90
2022-08-14T17:54:02.967Z,99.90
2022-08-14T17:56:01.718Z,99.90
2022-08-14T17:57:14.071Z,99.90
2022-08-14T17:58:42.074Z,99.90
2022-08-14T18:00:05.890Z,99.90
2022-08-14T18:01:29.647Z,99.90
2022-08-14T18:02:53.264Z,99.90
2022-08-14T18:04:25.157Z,99.90
2022-08-14T18:06:07.131Z,99.90
2022-08-14T18:07:59.764Z,99.90
2022-08-14T18:09:25.497Z,99.90
2022-08-14T18:10:55.745Z,99.90
2022-08-14T18:12:32.054Z,99.90
2022-08-14T18:13:57.394Z,99.90
2022-08-14T18:15:21.669Z,99.90
2022-08-14T18:16:58.574Z,99.90
2022-08-14T18:18:22.974Z,99.90
2022-08-14T18:19:45.290Z,99.90
2022-08-14T18:21:42.982Z,99.90
2022-08-14T18:22:50.192Z,99.90
2022-08-14T18:24:20.130Z,99.90
2022-08-14T18:25:54.527Z,99.90
2022-08-14T18:27:23.121Z,99.90
2022-08-14T18:28:50.938Z,99.90
2022-08-14T18:30:31.956Z,99.90
2022-08-14T18:32:02.818Z,99.90
2022-08-14T18:33:25.493Z,99.90
2022-08-14T18:34:51.788Z,99.90
2022-08-14T18:36:47.603Z,99.90
2022-08-14T18:38:25.632Z,99.90
2022-08-14T18:40:01.187Z,99.90
2022-08-14T18:41:36.153Z,99.90
2022-08-14T18:43:03.631Z,99.90
2022-08-14T18:44:51.008Z,99.90
2022-08-14T18:46:59.994Z,99.90
2022-08-14T18:48:19.337Z,99.90
2022-08-14T18:49:57.789Z,99.90
2022-08-14T18:51:46.098Z,99.90
2022-08-14T18:53:24.945Z,99.90
2022-08-14T18:54:48.643Z,99.90
2022-08-14T18:56:59.503Z,99.90
2022-08-14T18:58:33.916Z,99.90
2022-08-14T18:59:57.505Z,99.90
2022-08-14T19:01:26.354Z,99.90
2022-08-14T19:02:51.050Z,99.90
2022-08-14T19:04:37.123Z,99.90
2022-08-14T19:06:04.531Z,99.90
2022-08-14T19:07:28.291Z,99.90
2022-08-14T19:08:56.252Z,99.90
2022-08-14T19:10:31.871Z,99.90
2022-08-14T19:11:55.589Z,99.90
2022-08-14T19:13:44.507Z,99.90
2022-08-14T19:15:10.611Z,99.90
2022-08-14T19:16:42.796Z,99.90
2022-08-14T19:18:26.291Z,99.90
2022-08-14T19:20:07.808Z,99.90